createdAt,value
2022-08-09T06:13:47.375Z,1020.37
2022-08-09T06:23:55.610Z,1020.41
2022-08-09T06:33:52.931Z,1020.37
2022-08-09T06:43:47.270Z,1020.50
2022-08-09T06:53:49.851Z,1020.61
2022-08-09T07:03:53.093Z,1020.56
2022-08-09T07:14:04.762Z,1020.58
2022-08-09T07:23:57.892Z,1020.52
2022-08-09T07:33:52.154Z,1020.51
2022-08-09T07:43:55.921Z,1020.63
2022-08-09T07:54:07.473Z,1020.61
2022-08-09T08:03:47.289Z,1020.60
2022-08-09T08:13:57.218Z,1020.45
2022-08-09T08:23:55.628Z,1020.46
2022-08-09T08:33:53.422Z,1020.47
2022-08-09T08:43:47.327Z,1020.53
2022-08-09T08:54:03.206Z,1020.58
2022-08-09T09:03:49.417Z,1020.61
2022-08-09T09:13:56.261Z,1020.54
2022-08-09T09:23:50.017Z,1020.64
2022-08-09T09:33:47.433Z,1020.62
2022-08-09T09:44:10.791Z,1020.64
2022-08-09T09:54:01.706Z,1020.59
2022-08-09T10:03:56.444Z,1020.55
2022-08-09T10:13:47.304Z,1020.34
2022-08-09T10:23:47.267Z,1020.18
2022-08-09T10:34:09.868Z,1020.28
2022-08-09T10:43:59.786Z,1020.13
2022-08-09T10:53:54.448Z,1020.26
2022-08-09T11:03:50.941Z,1020.25
2022-08-09T11:13:53.625Z,1020.21
2022-08-09T11:23:49.266Z,1020.28
2022-08-09T11:33:47.436Z,1020.27
2022-08-09T11:43:47.458Z,1020.18
2022-08-09T11:53:58.592Z,1020.13
2022-08-09T12:03:57.484Z,1020.03
2022-08-09T12:14:08.218Z,1019.89
2022-08-09T12:24:08.503Z,1019.88
2022-08-09T12:33:58.616Z,1019.67
2022-08-09T12:44:06.007Z,1019.55
2022-08-09T12:53:52.745Z,1019.52
2022-08-09T13:03:53.515Z,1019.46
2022-08-09T13:14:36.967Z,1019.26
2022-08-09T13:24:41.995Z,1019.32
2022-08-09T13:33:52.973Z,1019.26
2022-08-09T13:43:47.455Z,1019.29
2022-08-09T13:53:47.346Z,1019.26
2022-08-09T14:04:02.304Z,1019.19
2022-08-09T14:14:23.240Z,1019.01
2022-08-09T14:23:54.506Z,1019.06
2022-08-09T14:33:52.320Z,1019.00
2022-08-09T14:43:53.242Z,1018.94
2022-08-09T14:53:52.264Z,1019.02
2022-08-09T15:03:47.549Z,1019.01
2022-08-09T15:13:48.611Z,1019.00
2022-08-09T15:24:02.277Z,1018.84
2022-08-09T15:34:17.334Z,1018.96
2022-08-09T15:43:47.475Z,1018.83
2022-08-09T15:54:03.884Z,1018.83
2022-08-09T16:03:50.106Z,1018.77
2022-08-09T16:14:02.680Z,1018.75
2022-08-09T16:23:54.713Z,1018.82
2022-08-09T16:33:47.598Z,1018.67
2022-08-09T16:43:47.506Z,1018.73
2022-08-09T16:54:16.527Z,1018.74
2022-08-09T17:03:47.527Z,1018.71
2022-08-09T17:13:47.660Z,1018.72
2022-08-09T17:24:27.317Z,1018.74
2022-08-09T17:33:47.630Z,1018.80
2022-08-09T17:43:50.957Z,1018.73
2022-08-09T17:53:52.217Z,1018.82
2022-08-09T18:03:47.650Z,1018.87
2022-08-09T18:14:00.645Z,1019.06
2022-08-09T18:24:09.976Z,1019.09
2022-08-09T18:33:53.437Z,1019.13
2022-08-09T18:43:53.320Z,1019.25
2022-08-09T18:53:56.955Z,1019.26
2022-08-09T19:04:00.987Z,1019.52
2022-08-09T19:13:51.145Z,1019.53
